Time;durP1;ratioP1;P1;durP2;ratioP2;P2;SDS_P1;SDS_P2;PMS_P1;PMS_P2;Temp;Humidity;BMP_temperature;BMP_pressure;BME280_temperature;BME280_humidity;BME280_pressure;Samples;Min_cycle;Max_cycle;Signal;HPM_P1;HPM_P2
2021/10/22 00:02:05;;;;;;;3.17;1.65;;;8.40;99.90;;;;;;5034224;28;20512;-45
2021/10/22 00:04:32;;;;;;;2.65;1.40;;;8.30;99.90;;;;;;5039796;28;20305;-49
2021/10/22 00:06:59;;;;;;;2.67;2.00;;;8.20;99.90;;;;;;5033882;28;20218;-47
2021/10/22 00:09:27;;;;;;;1.90;1.10;;;8.30;99.90;;;;;;5041897;28;20201;-51
2021/10/22 00:11:54;;;;;;;1.25;1.15;;;8.20;99.90;;;;;;5032631;28;20196;-48
2021/10/22 00:14:23;;;;;;;5.70;1.42;;;8.20;99.90;;;;;;5025616;28;20229;-50
2021/10/22 00:16:50;;;;;;;4.32;2.42;;;8.10;99.90;;;;;;5035046;28;20197;-50
2021/10/22 00:19:17;;;;;;;5.53;1.92;;;8.10;99.90;;;;;;5027299;28;20388;-49
2021/10/22 00:21:45;;;;;;;2.92;1.42;;;8.00;99.90;;;;;;5036993;28;20247;-45
2021/10/22 00:24:12;;;;;;;1.83;1.55;;;8.00;99.90;;;;;;5033553;28;20250;-45
2021/10/22 00:26:39;;;;;;;2.05;1.88;;;8.00;99.90;;;;;;5038945;28;20224;-45
2021/10/22 00:29:06;;;;;;;4.30;2.17;;;8.00;99.90;;;;;;5036002;28;20204;-51
2021/10/22 00:31:34;;;;;;;1.63;1.50;;;8.00;99.90;;;;;;5027112;28;20197;-50
2021/10/22 00:34:01;;;;;;;1.65;1.30;;;8.00;99.90;;;;;;5036017;28;20220;-46
2021/10/22 00:36:29;;;;;;;3.45;1.58;;;8.00;99.90;;;;;;5033004;28;20201;-52
2021/10/22 00:38:56;;;;;;;3.70;2.22;;;8.00;99.90;;;;;;5036681;28;20204;-51
2021/10/22 00:41:25;;;;;;;3.08;1.30;;;7.90;99.90;;;;;;5032168;28;20250;-47
2021/10/22 00:43:52;;;;;;;13.85;1.60;;;8.00;99.90;;;;;;5031990;28;20274;-47
2021/10/22 00:46:19;;;;;;;3.30;2.10;;;7.90;99.90;;;;;;5029332;28;20204;-50
2021/10/22 00:48:46;;;;;;;2.00;1.67;;;7.80;99.90;;;;;;5035940;28;20230;-46
2021/10/22 00:51:16;;;;;;;4.47;1.70;;;7.80;99.90;;;;;;5033759;28;20384;-51
2021/10/22 00:53:43;;;;;;;4.32;1.75;;;7.80;99.90;;;;;;5036917;28;20208;-51
2021/10/22 00:56:11;;;;;;;2.20;1.80;;;7.80;99.90;;;;;;5033335;28;20427;-48
2021/10/22 00:58:40;;;;;;;2.30;1.83;;;7.80;99.90;;;;;;5032048;28;20506;-47
2021/10/22 01:01:08;;;;;;;1.95;1.63;;;7.80;99.90;;;;;;5034868;28;20223;-45
2021/10/22 01:03:35;;;;;;;3.17;1.85;;;7.80;99.90;;;;;;5032695;28;20200;-49
2021/10/22 01:06:04;;;;;;;3.42;2.15;;;7.70;99.90;;;;;;5036302;28;20594;-47
2021/10/22 01:08:35;;;;;;;6.95;2.10;;;7.80;99.90;;;;;;5026441;28;20270;-50
2021/10/22 01:11:03;;;;;;;2.92;1.98;;;7.70;99.90;;;;;;5036824;28;20204;-50
2021/10/22 01:13:31;;;;;;;1.67;1.48;;;7.80;99.90;;;;;;5028813;28;20201;-50
2021/10/22 01:15:58;;;;;;;2.03;1.80;;;7.70;99.90;;;;;;5034520;28;20293;-52
2021/10/22 01:18:27;;;;;;;2.50;1.85;;;7.80;99.90;;;;;;5032304;28;20280;-47
2021/10/22 01:20:57;;;;;;;1.88;1.60;;;7.80;99.90;;;;;;5034950;28;20370;-47
2021/10/22 01:23:25;;;;;;;3.55;1.60;;;7.70;99.90;;;;;;5033943;28;20211;-51
2021/10/22 01:25:52;;;;;;;2.75;2.55;;;7.70;99.90;;;;;;5035431;28;20435;-46
2021/10/22 01:28:21;;;;;;;7.40;2.25;;;7.70;99.90;;;;;;5023206;28;20605;-42
2021/10/22 01:30:48;;;;;;;2.83;1.73;;;7.70;99.90;;;;;;5029395;28;20239;-47
2021/10/22 01:33:18;;;;;;;3.42;2.03;;;7.70;99.90;;;;;;5028965;28;20222;-49
2021/10/22 01:35:46;;;;;;;2.97;1.95;;;7.80;99.90;;;;;;5035165;28;20220;-50
2021/10/22 01:38:15;;;;;;;4.07;1.90;;;7.80;99.90;;;;;;5031590;28;21014;-47
2021/10/22 01:40:43;;;;;;;2.10;2.00;;;7.70;99.90;;;;;;5035971;28;20238;-47
2021/10/22 01:43:10;;;;;;;4.68;1.98;;;7.60;99.90;;;;;;5029495;28;20205;-49
2021/10/22 01:45:38;;;;;;;2.75;2.15;;;7.60;99.90;;;;;;5026829;28;20624;-46
2021/10/22 01:48:06;;;;;;;1.98;1.88;;;7.60;99.90;;;;;;5038157;28;20604;-46
2021/10/22 01:50:34;;;;;;;1.75;1.65;;;7.60;99.90;;;;;;5037284;28;20246;-51
2021/10/22 01:53:01;;;;;;;6.38;1.98;;;7.70;99.90;;;;;;5040134;28;20197;-50
2021/10/22 01:55:28;;;;;;;4.22;2.20;;;7.60;99.90;;;;;;5037887;28;20258;-49
2021/10/22 01:57:55;;;;;;;4.13;2.53;;;7.50;99.90;;;;;;5020830;28;20247;-49
2021/10/22 02:00:23;;;;;;;2.95;2.38;;;7.50;99.90;;;;;;5033739;28;20208;-41
2021/10/22 02:02:51;;;;;;;3.53;2.10;;;7.50;99.90;;;;;;5038771;28;20281;-47
2021/10/22 02:05:18;;;;;;;2.65;2.45;;;7.50;99.90;;;;;;5036433;28;20238;-50
2021/10/22 02:07:45;;;;;;;1.90;1.80;;;7.40;99.90;;;;;;5036491;28;20291;-45
2021/10/22 02:10:13;;;;;;;1.95;1.85;;;7.40;99.90;;;;;;5039633;28;20205;-47
2021/10/22 02:12:40;;;;;;;7.85;2.50;;;7.40;99.90;;;;;;5037455;28;20254;-48
2021/10/22 02:15:07;;;;;;;4.32;1.70;;;7.50;99.90;;;;;;5053130;23;20228;-47
2021/10/22 02:17:35;;;;;;;4.03;1.73;;;7.40;99.90;;;;;;5037996;28;20217;-51
2021/10/22 02:20:05;;;;;;;3.33;1.90;;;7.30;99.90;;;;;;5028440;28;20200;-47
2021/10/22 02:22:32;;;;;;;3.47;1.85;;;7.30;99.90;;;;;;5030897;28;20205;-48
2021/10/22 02:24:59;;;;;;;1.92;1.55;;;7.30;99.90;;;;;;5032621;28;20620;-45
2021/10/22 02:27:28;;;;;;;4.45;2.47;;;7.30;99.90;;;;;;5026973;28;20267;-50
2021/10/22 02:30:15;;;;;;;2.60;2.20;;;7.20;99.90;;;;;;5040563;28;20230;-47
2021/10/22 02:32:42;;;;;;;2.55;1.83;;;7.10;99.90;;;;;;5035311;28;20399;-50
2021/10/22 02:35:09;;;;;;;3.50;2.00;;;7.10;99.90;;;;;;5035723;28;20223;-44
2021/10/22 02:37:36;;;;;;;2.65;2.45;;;7.10;99.90;;;;;;5031556;28;20207;-47
2021/10/22 02:40:05;;;;;;;4.18;2.22;;;7.10;99.90;;;;;;5034468;28;20211;-46
2021/10/22 02:42:34;;;;;;;5.43;3.15;;;7.10;99.90;;;;;;5041041;28;20208;-50
2021/10/22 02:45:01;;;;;;;4.25;2.78;;;7.10;99.90;;;;;;5041383;28;20239;-49
2021/10/22 02:47:28;;;;;;;2.78;1.83;;;7.10;99.90;;;;;;5024485;28;20573;-45
2021/10/22 02:49:55;;;;;;;2.42;2.20;;;6.90;99.90;;;;;;5032075;28;20250;-46
2021/10/22 02:52:22;;;;;;;2.40;2.20;;;7.00;99.90;;;;;;5034900;28;20204;-46
2021/10/22 02:54:49;;;;;;;2.28;2.08;;;7.00;99.90;;;;;;5041350;28;20601;-46
2021/10/22 02:57:17;;;;;;;4.13;2.20;;;7.00;99.90;;;;;;5033185;28;20521;-46
2021/10/22 02:59:44;;;;;;;2.35;2.03;;;7.10;99.90;;;;;;5040452;28;20274;-46
2021/10/22 03:02:11;;;;;;;7.82;3.60;;;7.10;99.90;;;;;;5030423;28;20495;-47
2021/10/22 03:04:38;;;;;;;2.95;2.15;;;7.10;99.90;;;;;;5038009;28;20227;-46
2021/10/22 03:07:06;;;;;;;9.27;2.33;;;7.10;99.90;;;;;;5023415;28;20239;-47
2021/10/22 03:09:35;;;;;;;2.50;2.30;;;7.10;99.90;;;;;;5028235;28;20470;-48
2021/10/22 03:12:03;;;;;;;2.58;2.15;;;7.20;99.90;;;;;;5034107;28;20448;-45
2021/10/22 03:14:30;;;;;;;3.80;2.05;;;7.20;99.90;;;;;;5024926;28;20201;-49
2021/10/22 03:16:58;;;;;;;2.05;1.90;;;7.30;99.90;;;;;;5032759;28;20247;-47
2021/10/22 03:19:25;;;;;;;4.53;2.17;;;7.50;99.90;;;;;;5029467;28;20247;-46
2021/10/22 03:21:52;;;;;;;2.95;2.33;;;7.60;99.90;;;;;;5020762;28;20377;-46
2021/10/22 03:24:19;;;;;;;4.20;2.40;;;7.70;99.90;;;;;;5026661;28;20204;-48
2021/10/22 03:26:47;;;;;;;2.97;2.78;;;7.60;99.90;;;;;;5028121;28;20220;-47
2021/10/22 03:29:15;;;;;;;4.10;2.22;;;7.50;99.90;;;;;;5026664;28;20231;-46
2021/10/22 03:31:42;;;;;;;2.17;2.00;;;7.30;99.90;;;;;;5035226;28;20199;-48
2021/10/22 03:34:10;;;;;;;2.47;2.20;;;7.20;99.90;;;;;;5027396;28;20196;-47
2021/10/22 03:36:37;;;;;;;5.10;3.00;;;7.20;99.90;;;;;;5028504;28;20251;-49
2021/10/22 03:39:06;;;;;;;4.53;2.75;;;7.10;99.90;;;;;;5021375;28;20482;-48
2021/10/22 03:41:33;;;;;;;4.18;2.65;;;7.00;99.90;;;;;;5020875;28;20528;-47
2021/10/22 03:44:00;;;;;;;7.05;2.40;;;7.00;99.90;;;;;;5023099;28;20360;-50
2021/10/22 03:46:27;;;;;;;2.33;2.13;;;7.00;99.90;;;;;;5025504;28;20547;-47
2021/10/22 03:48:55;;;;;;;2.65;2.45;;;6.90;99.90;;;;;;5021803;28;20228;-45
2021/10/22 03:51:22;;;;;;;4.35;3.05;;;6.90;99.90;;;;;;5024768;28;20288;-47
2021/10/22 03:53:49;;;;;;;2.40;2.05;;;6.80;99.90;;;;;;5027267;28;20201;-44
2021/10/22 03:56:16;;;;;;;2.22;2.05;;;6.80;99.90;;;;;;5024642;28;20274;-47
2021/10/22 03:58:44;;;;;;;5.82;2.55;;;6.70;99.90;;;;;;5032543;28;20399;-48
2021/10/22 04:01:11;;;;;;;1.83;1.65;;;6.80;99.90;;;;;;5032900;28;20399;-47
2021/10/22 04:03:38;;;;;;;2.22;2.03;;;6.60;99.90;;;;;;5029545;28;20205;-46
2021/10/22 04:06:06;;;;;;;8.75;2.67;;;6.60;99.90;;;;;;5034944;28;20266;-46
2021/10/22 04:08:33;;;;;;;2.72;2.50;;;6.60;99.90;;;;;;5031773;28;20228;-45
2021/10/22 04:11:00;;;;;;;4.93;2.03;;;6.60;99.90;;;;;;5037263;28;20326;-45
2021/10/22 04:13:27;;;;;;;2.78;1.85;;;6.60;99.90;;;;;;5036564;28;20427;-49
2021/10/22 04:15:54;;;;;;;2.15;1.98;;;6.60;99.90;;;;;;5031719;28;20347;-43
2021/10/22 04:18:22;;;;;;;2.50;2.17;;;6.60;99.90;;;;;;5032765;28;20220;-49
2021/10/22 04:20:49;;;;;;;3.55;2.00;;;6.60;99.90;;;;;;5030643;28;20208;-48
2021/10/22 04:23:17;;;;;;;6.45;2.80;;;6.50;99.90;;;;;;5037226;28;20549;-47
2021/10/22 04:25:44;;;;;;;2.55;2.08;;;6.40;99.90;;;;;;5038078;28;20219;-49
2021/10/22 04:28:12;;;;;;;2.97;2.55;;;6.40;99.90;;;;;;5044719;28;20427;-47
2021/10/22 04:30:39;;;;;;;4.78;2.10;;;6.40;99.90;;;;;;5038136;28;20200;-47
2021/10/22 04:33:06;;;;;;;3.33;2.08;;;6.40;99.90;;;;;;5037675;28;20238;-46
2021/10/22 04:35:34;;;;;;;3.05;2.25;;;6.30;99.90;;;;;;5028927;28;20547;-45
2021/10/22 04:40:48;;;;;;;4.50;3.90;;;6.30;99.90;;;;;;5034076;28;20199;-49
2021/10/22 04:43:16;;;;;;;7.38;2.30;;;6.30;99.90;;;;;;5031945;28;20205;-47
2021/10/22 04:45:47;;;;;;;2.35;2.25;;;6.30;99.90;;;;;;5033380;28;20220;-48
2021/10/22 04:48:15;;;;;;;9.82;2.60;;;6.20;99.90;;;;;;5036415;28;20532;-46
2021/10/22 04:50:49;;;;;;;3.15;2.85;;;6.30;99.90;;;;;;5039639;28;20218;-49
2021/10/22 04:53:18;;;;;;;6.82;2.30;;;6.30;99.90;;;;;;5039173;28;20206;-47
2021/10/22 04:55:45;;;;;;;5.45;3.78;;;6.20;99.90;;;;;;5036942;28;20220;-51
2021/10/22 04:58:12;;;;;;;3.80;2.65;;;6.10;99.90;;;;;;5038654;28;20200;-46
2021/10/22 05:00:57;;;;;;;11.90;3.92;;;6.10;99.90;;;;;;5032005;28;20243;-46
2021/10/22 05:03:25;;;;;;;3.00;2.67;;;6.00;99.90;;;;;;5036390;28;20474;-46
2021/10/22 05:05:52;;;;;;;2.63;2.42;;;6.10;99.90;;;;;;5038170;28;20231;-46
2021/10/22 05:08:19;;;;;;;5.88;2.50;;;6.10;99.90;;;;;;5028074;28;20285;-47
2021/10/22 05:10:47;;;;;;;4.35;2.75;;;6.10;99.90;;;;;;5022161;28;20219;-47
2021/10/22 05:13:14;;;;;;;3.15;2.75;;;6.10;99.90;;;;;;5018491;28;20205;-47
2021/10/22 05:15:42;;;;;;;3.10;1.98;;;6.10;99.90;;;;;;5018149;28;20299;-47
2021/10/22 05:18:08;;;;;;;3.53;3.20;;;6.10;99.90;;;;;;5025793;28;20222;-47
2021/10/22 05:20:36;;;;;;;6.13;2.80;;;6.10;99.90;;;;;;5018758;28;20208;-48
2021/10/22 05:23:08;;;;;;;6.47;2.65;;;6.00;99.90;;;;;;5024570;28;20308;-49
2021/10/22 05:25:36;;;;;;;3.60;2.22;;;6.00;99.90;;;;;;5034349;28;20220;-47
2021/10/22 05:28:04;;;;;;;3.85;2.92;;;6.00;99.90;;;;;;5025494;28;20228;-51
2021/10/22 05:30:31;;;;;;;4.43;2.42;;;6.00;99.90;;;;;;5029512;28;20204;-48
2021/10/22 05:32:58;;;;;;;7.32;3.42;;;6.00;99.90;;;;;;5026077;28;20239;-49
2021/10/22 05:35:26;;;;;;;6.07;2.75;;;5.90;99.90;;;;;;5034058;28;20487;-47
2021/10/22 05:37:53;;;;;;;8.35;3.17;;;5.90;99.90;;;;;;5035968;28;20458;-48
2021/10/22 05:40:20;;;;;;;11.75;2.92;;;6.00;99.90;;;;;;5033875;28;20251;-49
2021/10/22 05:42:47;;;;;;;6.32;4.72;;;6.10;99.90;;;;;;5032062;28;20204;-51
2021/10/22 05:45:14;;;;;;;7.75;3.88;;;6.00;99.90;;;;;;5034835;28;20229;-46
2021/10/22 05:47:41;;;;;;;5.78;3.10;;;6.10;99.90;;;;;;5034059;28;20200;-49
2021/10/22 05:50:10;;;;;;;2.97;2.47;;;6.30;99.90;;;;;;5033254;28;20231;-48
2021/10/22 05:52:37;;;;;;;2.80;2.67;;;6.40;99.90;;;;;;5034541;28;20395;-46
2021/10/22 05:55:04;;;;;;;9.88;3.95;;;6.10;99.90;;;;;;5029117;28;20217;-41
2021/10/22 05:57:32;;;;;;;5.82;2.95;;;6.10;99.90;;;;;;5035023;28;20229;-48
2021/10/22 05:59:59;;;;;;;8.30;3.30;;;6.00;99.90;;;;;;5026553;28;20200;-45
2021/10/22 06:02:27;;;;;;;5.47;3.35;;;6.10;99.90;;;;;;5029086;28;20231;-47
2021/10/22 06:04:54;;;;;;;6.55;2.60;;;6.30;99.90;;;;;;5031341;28;20215;-44
2021/10/22 06:07:21;;;;;;;4.10;3.05;;;6.30;99.90;;;;;;5026752;28;20204;-50
2021/10/22 06:09:48;;;;;;;2.95;2.65;;;6.40;99.90;;;;;;5024855;28;20224;-47
2021/10/22 06:12:15;;;;;;;9.75;2.63;;;6.50;99.90;;;;;;5025204;28;20533;-47
2021/10/22 06:14:42;;;;;;;7.95;2.85;;;6.60;99.90;;;;;;5028642;28;20480;-47
2021/10/22 06:17:09;;;;;;;2.55;2.35;;;6.60;99.90;;;;;;5023841;28;20462;-45
2021/10/22 06:19:40;;;;;;;4.20;3.00;;;6.70;99.90;;;;;;5025753;28;20465;-48
2021/10/22 06:24:35;;;;;;;4.97;3.63;;;6.80;99.90;;;;;;5025045;28;20335;-45
2021/10/22 06:27:02;;;;;;;5.50;3.13;;;6.70;99.90;;;;;;5019966;28;20282;-48
2021/10/22 06:29:31;;;;;;;22.08;6.53;;;6.70;99.90;;;;;;5022848;28;20237;-46
2021/10/22 06:31:58;;;;;;;13.52;4.10;;;6.80;99.90;;;;;;5021194;28;20201;-47
2021/10/22 06:34:27;;;;;;;8.77;3.72;;;7.10;99.90;;;;;;5035284;28;20201;-44
2021/10/22 06:36:55;;;;;;;14.07;4.72;;;7.20;99.90;;;;;;5032283;28;20461;-44
2021/10/22 06:39:22;;;;;;;8.18;2.50;;;7.30;99.90;;;;;;5041463;28;20406;-48
2021/10/22 06:41:51;;;;;;;3.08;2.70;;;7.30;99.90;;;;;;5033639;28;20204;-45
2021/10/22 06:44:18;;;;;;;8.15;3.17;;;7.50;99.90;;;;;;5031324;28;20212;-46
2021/10/22 06:46:46;;;;;;;3.20;2.90;;;7.50;99.90;;;;;;5025840;28;20568;-48
2021/10/22 06:49:13;;;;;;;4.53;3.28;;;7.50;99.90;;;;;;5029596;28;20220;-48
2021/10/22 06:51:41;;;;;;;6.90;3.63;;;7.60;99.90;;;;;;5025250;28;20205;-48
2021/10/22 06:54:08;;;;;;;2.35;2.25;;;7.70;99.90;;;;;;5033381;28;20197;-47
2021/10/22 06:56:35;;;;;;;5.85;3.47;;;7.80;99.90;;;;;;5041737;28;20282;-45
2021/10/22 06:59:02;;;;;;;9.43;3.40;;;7.90;99.90;;;;;;5038221;28;20200;-47
2021/10/22 07:01:30;;;;;;;5.43;3.85;;;8.00;99.90;;;;;;5035898;28;20270;-48
2021/10/22 07:03:57;;;;;;;2.55;2.35;;;8.10;99.90;;;;;;5025696;28;20236;-47
2021/10/22 07:09:10;;;;;;;4.00;3.30;;;8.60;99.90;;;;;;5026885;28;20220;-47
2021/10/22 07:11:38;;;;;;;6.88;3.40;;;8.90;99.90;;;;;;5025976;28;20251;-49
2021/10/22 07:14:08;;;;;;;6.57;3.92;;;9.30;99.90;;;;;;5022176;28;20201;-44
2021/10/22 07:16:38;;;;;;;7.70;4.35;;;9.90;99.90;;;;;;5025390;28;20235;-49
2021/10/22 07:19:06;;;;;;;4.47;4.07;;;10.90;99.90;;;;;;5030897;28;20202;-52
2021/10/22 07:21:37;;;;;;;4.60;4.18;;;12.00;99.90;;;;;;5035163;28;20257;-50
2021/10/22 07:24:11;;;;;;;5.60;5.10;;;13.00;99.90;;;;;;5039726;28;20200;-47
2021/10/22 07:26:39;;;;;;;5.00;4.70;;;13.80;99.90;;;;;;5028753;28;20224;-47
2021/10/22 07:29:06;;;;;;;5.90;5.60;;;14.50;99.90;;;;;;5031994;28;20242;-47
2021/10/22 07:31:33;;;;;;;5.50;5.10;;;15.10;99.90;;;;;;5035323;28;20355;-47
2021/10/22 07:34:00;;;;;;;5.70;5.03;;;15.60;99.00;;;;;;5027903;28;20202;-47
2021/10/22 07:36:27;;;;;;;5.47;5.17;;;15.90;98.00;;;;;;5032113;28;20223;-47
2021/10/22 07:39:05;;;;;;;5.43;5.13;;;16.40;96.90;;;;;;5032128;28;20438;-50
2021/10/22 07:41:33;;;;;;;9.20;6.10;;;16.70;95.80;;;;;;5026213;28;20446;-49
2021/10/22 07:44:00;;;;;;;5.50;5.20;;;16.60;95.40;;;;;;5024609;28;20664;-47
2021/10/22 07:46:27;;;;;;;6.90;6.50;;;16.90;94.70;;;;;;5032353;28;20469;-47
2021/10/22 07:48:54;;;;;;;6.20;5.77;;;16.80;94.60;;;;;;5028765;28;20489;-44
2021/10/22 07:51:22;;;;;;;6.40;5.97;;;17.00;94.10;;;;;;5029515;28;20434;-44
2021/10/22 07:53:50;;;;;;;6.03;5.63;;;17.00;93.40;;;;;;5022455;28;20459;-47
2021/10/22 07:56:17;;;;;;;6.90;6.20;;;17.00;93.20;;;;;;5031461;28;20496;-45
2021/10/22 07:58:45;;;;;;;6.07;5.47;;;16.90;93.10;;;;;;5026227;28;20419;-48
2021/10/22 08:01:32;;;;;;;5.40;5.20;;;16.60;93.30;;;;;;5026679;28;20449;-46
2021/10/22 08:03:59;;;;;;;5.97;5.57;;;16.90;93.30;;;;;;5025044;28;20498;-48
2021/10/22 08:06:27;;;;;;;6.10;5.70;;;17.70;92.30;;;;;;5028319;28;20501;-48
2021/10/22 08:08:55;;;;;;;6.00;5.70;;;17.60;91.90;;;;;;5026933;28;20657;-47
2021/10/22 08:11:22;;;;;;;5.80;5.50;;;17.00;92.00;;;;;;5027094;28;20437;-50
2021/10/22 08:13:50;;;;;;;7.20;6.50;;;15.70;93.90;;;;;;5023081;28;20455;-49
2021/10/22 08:16:18;;;;;;;7.50;6.85;;;14.20;95.70;;;;;;5044816;23;20493;-54
2021/10/22 08:18:47;;;;;;;6.25;5.90;;;13.10;97.90;;;;;;5017554;28;20205;-50
2021/10/22 08:21:21;;;;;;;5.65;5.35;;;12.40;99.30;;;;;;5019286;28;20235;-55
2021/10/22 08:24:04;;;;;;;6.40;6.00;;;12.00;99.90;;;;;;5020559;28;20248;-52
2021/10/22 08:26:32;;;;;;;5.50;5.10;;;12.20;99.90;;;;;;5020283;28;20229;-52
2021/10/22 08:29:20;;;;;;;5.65;5.35;;;12.40;99.90;;;;;;5019982;28;20259;-53
2021/10/22 08:31:48;;;;;;;5.43;5.00;;;12.70;99.50;;;;;;5020088;28;20276;-49
2021/10/22 08:34:15;;;;;;;6.03;5.53;;;13.30;98.70;;;;;;5020027;28;20197;-51
2021/10/22 08:36:42;;;;;;;9.68;5.68;;;14.00;97.90;;;;;;5020470;28;20382;-55
2021/10/22 08:39:11;;;;;;;5.93;5.45;;;14.40;96.70;;;;;;5021769;28;20206;-50
2021/10/22 08:41:38;;;;;;;6.43;6.07;;;14.50;96.40;;;;;;5033863;28;20206;-52
2021/10/22 08:44:09;;;;;;;5.30;5.00;;;15.50;95.20;;;;;;5019674;28;20202;-54
2021/10/22 08:46:38;;;;;;;5.47;5.17;;;16.20;94.30;;;;;;5015743;28;20474;-56
2021/10/22 08:49:05;;;;;;;5.57;5.27;;;16.20;93.30;;;;;;5019351;28;20481;-50
2021/10/22 08:51:32;;;;;;;5.30;5.10;;;15.60;93.90;;;;;;5019633;28;20441;-54
2021/10/22 08:54:00;;;;;;;4.75;4.45;;;15.10;94.60;;;;;;5018965;28;20443;-52
2021/10/22 08:56:28;;;;;;;5.80;5.43;;;15.20;95.00;;;;;;5020079;28;20222;-53
2021/10/22 08:58:56;;;;;;;6.07;5.65;;;15.40;94.30;;;;;;5018838;28;20447;-51
2021/10/22 09:01:23;;;;;;;5.82;5.43;;;14.60;95.20;;;;;;5019246;28;20276;-54
2021/10/22 09:03:51;;;;;;;4.85;4.45;;;14.10;95.90;;;;;;5025315;28;20207;-51
2021/10/22 09:06:18;;;;;;;3.80;3.60;;;13.70;96.40;;;;;;5019766;28;20231;-50
2021/10/22 09:08:46;;;;;;;5.32;5.03;;;13.30;96.80;;;;;;5019469;28;20297;-52
2021/10/22 09:11:30;;;;;;;7.50;5.38;;;13.00;97.50;;;;;;5026086;28;20288;-54
2021/10/22 09:14:17;;;;;;;5.18;4.90;;;13.00;97.40;;;;;;5019313;28;20507;-51
2021/10/22 09:16:50;;;;;;;5.95;5.45;;;13.20;97.50;;;;;;5021379;28;20433;-55
2021/10/22 09:19:41;;;;;;;6.60;5.78;;;13.10;97.50;;;;;;5019392;28;20538;-52
2021/10/22 09:22:35;;;;;;;8.48;5.90;;;12.90;97.90;;;;;;5017863;28;20435;-53
2021/10/22 09:25:11;;;;;;;5.13;4.85;;;12.60;97.90;;;;;;5017921;28;20193;-48
2021/10/22 09:27:49;;;;;;;7.35;5.47;;;12.50;97.90;;;;;;5025779;28;20296;-50
2021/10/22 09:30:44;;;;;;;5.85;5.55;;;12.60;97.90;;;;;;5019941;28;20465;-53
2021/10/22 09:33:11;;;;;;;4.35;4.15;;;12.70;97.90;;;;;;5020179;28;20255;-51
2021/10/22 09:35:52;;;;;;;11.05;6.30;;;12.60;98.10;;;;;;5018321;28;20247;-51
2021/10/22 09:38:26;;;;;;;5.55;5.00;;;12.50;98.10;;;;;;5018962;28;20208;-51
2021/10/22 09:41:06;;;;;;;10.05;5.07;;;12.60;98.00;;;;;;5018894;28;20244;-56
2021/10/22 09:43:35;;;;;;;4.90;4.55;;;12.70;97.80;;;;;;5025139;28;20258;-52
2021/10/22 09:46:16;;;;;;;5.15;4.85;;;12.80;97.50;;;;;;5021059;28;20254;-54
2021/10/22 09:48:46;;;;;;;4.85;4.53;;;12.90;97.40;;;;;;5024451;28;20270;-52
2021/10/22 09:51:35;;;;;;;6.25;5.70;;;12.90;97.30;;;;;;5019733;28;20223;-49
2021/10/22 09:54:08;;;;;;;4.70;4.50;;;13.10;96.90;;;;;;5022861;28;20452;-53
2021/10/22 09:56:41;;;;;;;8.73;4.68;;;13.40;96.90;;;;;;5025624;28;20326;-51
2021/10/22 09:59:10;;;;;;;5.05;4.85;;;13.50;96.00;;;;;;5018455;28;20208;-49
2021/10/22 10:01:40;;;;;;;5.00;4.80;;;13.70;95.50;;;;;;5019024;28;20405;-55
2021/10/22 10:04:10;;;;;;;5.20;4.82;;;13.80;95.20;;;;;;5021314;28;20200;-50
2021/10/22 10:06:59;;;;;;;5.20;5.00;;;13.70;95.30;;;;;;5017884;28;20217;-51
2021/10/22 10:09:27;;;;;;;5.28;5.07;;;13.80;95.60;;;;;;5023044;28;20228;-53
2021/10/22 10:12:00;;;;;;;5.50;5.20;;;13.70;94.90;;;;;;5022327;28;20554;-51
2021/10/22 10:14:29;;;;;;;5.15;4.85;;;13.60;94.80;;;;;;5023643;28;20208;-50
2021/10/22 10:16:58;;;;;;;6.75;4.70;;;13.70;94.70;;;;;;5023014;28;20270;-51
2021/10/22 10:19:46;;;;;;;4.45;4.20;;;13.70;94.70;;;;;;5026408;28;20229;-51
2021/10/22 10:22:16;;;;;;;5.65;5.25;;;13.80;94.70;;;;;;5021373;28;20205;-49
2021/10/22 10:24:48;;;;;;;5.00;4.60;;;13.90;94.80;;;;;;5030687;28;20234;-53
2021/10/22 10:27:19;;;;;;;4.75;4.55;;;13.90;94.70;;;;;;5022588;28;20224;-51
2021/10/22 10:29:55;;;;;;;4.55;4.35;;;13.90;94.60;;;;;;5022180;28;20283;-51
2021/10/22 10:32:25;;;;;;;5.50;5.20;;;14.10;94.30;;;;;;5014970;28;20200;-52
2021/10/22 10:34:58;;;;;;;5.50;5.13;;;14.00;93.80;;;;;;5022344;28;20268;-54
2021/10/22 10:37:27;;;;;;;5.20;4.90;;;13.80;93.70;;;;;;5022206;28;20226;-52
2021/10/22 10:40:00;;;;;;;5.05;4.75;;;13.50;94.20;;;;;;5022054;28;20614;-48
2021/10/22 10:42:34;;;;;;;4.65;4.45;;;13.10;94.30;;;;;;5028077;28;20211;-52
2021/10/22 10:45:36;;;;;;;4.45;4.25;;;12.60;94.90;;;;;;5026129;28;20337;-53
2021/10/22 10:48:13;;;;;;;4.78;4.47;;;12.50;95.10;;;;;;5019006;28;20212;-51
2021/10/22 10:50:56;;;;;;;5.10;4.90;;;12.40;95.50;;;;;;5021987;28;20235;-55
2021/10/22 10:53:34;;;;;;;6.53;4.93;;;12.40;95.60;;;;;;5025312;28;20242;-49
2021/10/22 10:56:04;;;;;;;6.43;5.85;;;12.40;95.90;;;;;;5014998;28;20550;-49
2021/10/22 10:58:44;;;;;;;5.57;5.20;;;12.50;96.40;;;;;;5026068;28;20196;-55
2021/10/22 11:01:25;;;;;;;4.53;4.20;;;12.80;96.50;;;;;;5021848;28;20435;-51
2021/10/22 11:03:54;;;;;;;4.90;4.60;;;13.10;96.40;;;;;;5021615;28;20201;-55
2021/10/22 11:06:41;;;;;;;4.97;4.68;;;13.00;97.10;;;;;;5022215;28;20515;-55
2021/10/22 11:09:13;;;;;;;4.55;3.90;;;13.10;97.40;;;;;;5021596;28;20220;-53
2021/10/22 11:11:41;;;;;;;5.47;4.63;;;13.10;95.80;;;;;;5021839;28;20247;-53
2021/10/22 11:14:12;;;;;;;5.72;4.60;;;13.20;95.80;;;;;;5027436;28;20234;-49
2021/10/22 11:16:49;;;;;;;5.63;5.28;;;13.40;95.00;;;;;;5023789;28;20292;-51
2021/10/22 11:19:36;;;;;;;4.30;4.00;;;13.40;95.60;;;;;;5024438;28;20219;-50
2021/10/22 11:22:18;;;;;;;11.55;6.22;;;13.60;95.40;;;;;;5021543;28;20210;-52
2021/10/22 11:24:46;;;;;;;8.75;4.30;;;13.80;95.80;;;;;;5024310;28;20522;-54
2021/10/22 11:27:18;;;;;;;6.68;5.15;;;13.80;95.00;;;;;;5021304;28;20225;-53
2021/10/22 11:29:48;;;;;;;4.90;4.50;;;14.00;95.30;;;;;;5023974;28;20300;-53
2021/10/22 11:32:24;;;;;;;4.85;4.50;;;14.30;94.50;;;;;;5021238;28;20200;-54
2021/10/22 11:34:59;;;;;;;4.65;4.45;;;14.10;94.50;;;;;;5020795;28;20304;-56
2021/10/22 11:37:31;;;;;;;5.30;4.90;;;13.80;95.30;;;;;;5023363;28;20228;-50
2021/10/22 11:39:57;;;;;;;4.55;4.25;;;13.50;95.00;;;;;;5023960;28;20247;-52
2021/10/22 11:42:30;;;;;;;4.55;4.20;;;13.60;94.80;;;;;;5021630;28;20205;-54
2021/10/22 11:45:07;;;;;;;4.95;4.55;;;13.70;94.70;;;;;;5021855;28;20545;-54
2021/10/22 11:47:34;;;;;;;7.50;4.50;;;13.90;94.80;;;;;;5022786;28;20232;-53
2021/10/22 11:50:23;;;;;;;4.72;4.38;;;13.90;94.80;;;;;;5020559;28;20271;-50
2021/10/22 11:53:10;;;;;;;4.90;4.70;;;13.80;95.20;;;;;;5021111;28;20270;-54
2021/10/22 11:55:42;;;;;;;5.20;4.80;;;13.70;95.30;;;;;;5020991;28;20217;-49
2021/10/22 11:58:12;;;;;;;4.50;4.30;;;13.70;95.60;;;;;;5029460;28;20256;-54
2021/10/22 12:00:55;;;;;;;4.95;4.75;;;13.50;95.40;;;;;;5022120;28;20209;-56
2021/10/22 12:03:44;;;;;;;5.50;5.30;;;13.40;95.60;;;;;;5021716;28;20384;-51
2021/10/22 12:06:19;;;;;;;4.72;4.32;;;13.40;95.80;;;;;;5024308;28;20224;-57
2021/10/22 12:08:50;;;;;;;5.10;4.70;;;13.40;96.00;;;;;;5025334;28;20199;-55
2021/10/22 12:11:19;;;;;;;4.88;4.57;;;13.60;96.30;;;;;;5028454;28;20304;-53
2021/10/22 12:13:46;;;;;;;5.68;5.00;;;13.80;95.60;;;;;;5032970;28;20207;-56
2021/10/22 12:16:25;;;;;;;4.88;4.68;;;13.70;95.60;;;;;;5028643;28;20339;-45
2021/10/22 12:18:58;;;;;;;5.57;5.18;;;13.80;95.70;;;;;;5027319;28;20201;-54
2021/10/22 12:21:28;;;;;;;4.90;4.50;;;13.80;95.70;;;;;;5021616;28;20275;-49
2021/10/22 12:24:00;;;;;;;5.35;5.05;;;13.60;95.80;;;;;;5024854;28;20201;-54
2021/10/22 12:26:30;;;;;;;4.57;4.35;;;13.20;95.60;;;;;;5029246;28;20233;-50
2021/10/22 12:29:06;;;;;;;5.07;4.88;;;13.20;95.40;;;;;;5019146;28;20360;-51
2021/10/22 12:31:50;;;;;;;4.43;4.22;;;13.20;94.70;;;;;;5025171;28;20197;-51
2021/10/22 12:34:32;;;;;;;5.05;4.07;;;13.30;94.10;;;;;;5022307;28;20257;-54
2021/10/22 12:37:06;;;;;;;4.20;3.90;;;13.30;93.10;;;;;;5022729;28;20275;-53
2021/10/22 12:39:43;;;;;;;4.78;4.35;;;13.50;93.30;;;;;;5016552;28;20211;-55
2021/10/22 12:42:29;;;;;;;4.10;3.90;;;13.80;93.20;;;;;;5018285;28;20212;-51
2021/10/22 12:45:21;;;;;;;4.75;4.50;;;13.90;92.90;;;;;;5021748;28;20232;-51
2021/10/22 12:47:50;;;;;;;7.18;6.57;;;13.80;92.70;;;;;;5014612;28;20216;-50
2021/10/22 12:50:25;;;;;;;5.00;4.53;;;13.70;92.70;;;;;;5024152;28;20244;-54
2021/10/22 12:53:03;;;;;;;4.18;3.88;;;13.70;92.60;;;;;;5018852;28;20196;-51
2021/10/22 12:55:31;;;;;;;5.13;4.82;;;13.70;92.50;;;;;;5013858;28;20523;-50
2021/10/22 12:58:21;;;;;;;6.65;5.05;;;13.70;93.00;;;;;;5019635;28;20204;-46
2021/10/22 13:01:14;;;;;;;4.55;4.25;;;13.70;93.80;;;;;;5013741;28;20207;-49
2021/10/22 13:03:47;;;;;;;4.38;4.05;;;13.60;93.60;;;;;;5021906;28;20227;-54
2021/10/22 13:06:31;;;;;;;4.68;4.38;;;13.60;93.00;;;;;;5019013;28;20229;-54
2021/10/22 13:22:29;;;;;;;9.43;8.32;;;13.70;93.60;;;;;;5019388;28;20230;-50
2021/10/22 13:24:56;;;;;;;8.07;6.35;;;13.70;93.60;;;;;;5021917;28;20228;-49
2021/10/22 13:27:26;;;;;;;6.53;6.00;;;13.80;93.60;;;;;;5022552;28;20229;-56
2021/10/22 13:29:57;;;;;;;46.33;15.77;;;13.60;93.20;;;;;;5026823;28;20246;-57
2021/10/22 13:32:25;;;;;;;5.88;5.50;;;13.50;93.90;;;;;;5019449;28;20200;-52